sensor_id;sensor_type;location;lat;lon;timestamp;P1;durP1;ratioP1;P2;durP2;ratioP2
751;SDS011;360;48.764;9.164;2023-02-28T00:01:19;0.73;;;0.73;;
751;SDS011;360;48.764;9.164;2023-02-28T00:03:46;1.07;;;0.97;;
751;SDS011;360;48.764;9.164;2023-02-28T00:06:13;2.00;;;1.70;;
751;SDS011;360;48.764;9.164;2023-02-28T00:08:40;1.10;;;1.00;;
751;SDS011;360;48.764;9.164;2023-02-28T00:11:10;2.63;;;2.33;;
751;SDS011;360;48.764;9.164;2023-02-28T00:13:38;1.50;;;1.37;;
751;SDS011;360;48.764;9.164;2023-02-28T00:16:08;3.10;;;1.63;;
751;SDS011;360;48.764;9.164;2023-02-28T00:18:36;2.30;;;1.40;;
751;SDS011;360;48.764;9.164;2023-02-28T00:21:03;2.63;;;1.60;;
751;SDS011;360;48.764;9.164;2023-02-28T00:23:30;1.30;;;1.10;;
751;SDS011;360;48.764;9.164;2023-02-28T00:25:58;1.30;;;1.20;;
751;SDS011;360;48.764;9.164;2023-02-28T00:28:26;0.93;;;0.87;;
751;SDS011;360;48.764;9.164;2023-02-28T00:30:53;3.37;;;1.83;;
751;SDS011;360;48.764;9.164;2023-02-28T00:33:22;16.33;;;1.53;;
751;SDS011;360;48.764;9.164;2023-02-28T00:35:49;1.23;;;1.13;;
751;SDS011;360;48.764;9.164;2023-02-28T00:38:16;1.53;;;1.40;;
751;SDS011;360;48.764;9.164;2023-02-28T00:40:43;1.80;;;1.30;;
751;SDS011;360;48.764;9.164;2023-02-28T00:43:10;1.90;;;1.53;;
751;SDS011;360;48.764;9.164;2023-02-28T00:45:39;1.70;;;1.50;;
751;SDS011;360;48.764;9.164;2023-02-28T00:48:06;1.67;;;1.53;;
751;SDS011;360;48.764;9.164;2023-02-28T00:50:33;2.50;;;2.13;;
751;SDS011;360;48.764;9.164;2023-02-28T00:53:00;3.17;;;1.57;;
751;SDS011;360;48.764;9.164;2023-02-28T00:55:27;2.27;;;1.43;;
751;SDS011;360;48.764;9.164;2023-02-28T00:57:54;1.83;;;1.47;;
751;SDS011;360;48.764;9.164;2023-02-28T01:00:21;1.53;;;1.27;;
751;SDS011;360;48.764;9.164;2023-02-28T01:02:50;1.77;;;1.33;;
751;SDS011;360;48.764;9.164;2023-02-28T01:05:17;3.17;;;2.87;;
751;SDS011;360;48.764;9.164;2023-02-28T01:07:44;1.17;;;1.07;;
751;SDS011;360;48.764;9.164;2023-02-28T01:10:11;4.50;;;1.33;;
751;SDS011;360;48.764;9.164;2023-02-28T01:12:38;2.40;;;1.73;;
751;SDS011;360;48.764;9.164;2023-02-28T01:15:06;0.80;;;0.70;;
751;SDS011;360;48.764;9.164;2023-02-28T01:17:33;2.50;;;1.33;;
751;SDS011;360;48.764;9.164;2023-02-28T01:20:01;1.83;;;1.57;;
751;SDS011;360;48.764;9.164;2023-02-28T01:22:28;1.40;;;1.30;;
751;SDS011;360;48.764;9.164;2023-02-28T01:24:56;1.03;;;1.03;;
751;SDS011;360;48.764;9.164;2023-02-28T01:27:23;2.23;;;1.60;;
751;SDS011;360;48.764;9.164;2023-02-28T01:29:51;2.87;;;2.57;;
751;SDS011;360;48.764;9.164;2023-02-28T01:32:18;1.20;;;1.10;;
751;SDS011;360;48.764;9.164;2023-02-28T01:34:45;1.80;;;1.70;;
751;SDS011;360;48.764;9.164;2023-02-28T01:37:14;1.87;;;1.60;;
751;SDS011;360;48.764;9.164;2023-02-28T01:39:41;1.53;;;1.20;;
751;SDS011;360;48.764;9.164;2023-02-28T01:42:08;3.03;;;1.33;;
751;SDS011;360;48.764;9.164;2023-02-28T01:44:57;1.70;;;1.50;;
751;SDS011;360;48.764;9.164;2023-02-28T01:47:29;2.30;;;1.30;;
751;SDS011;360;48.764;9.164;2023-02-28T01:49:57;3.03;;;1.00;;
751;SDS011;360;48.764;9.164;2023-02-28T01:52:26;1.40;;;1.30;;
751;SDS011;360;48.764;9.164;2023-02-28T01:54:54;1.50;;;1.40;;
751;SDS011;360;48.764;9.164;2023-02-28T01:57:22;2.97;;;2.03;;
751;SDS011;360;48.764;9.164;2023-02-28T01:59:51;0.97;;;0.87;;
751;SDS011;360;48.764;9.164;2023-02-28T02:02:19;2.27;;;1.67;;
751;SDS011;360;48.764;9.164;2023-02-28T02:04:50;1.80;;;1.13;;
751;SDS011;360;48.764;9.164;2023-02-28T02:07:18;4.53;;;1.47;;
751;SDS011;360;48.764;9.164;2023-02-28T02:09:46;1.40;;;1.30;;
751;SDS011;360;48.764;9.164;2023-02-28T02:12:16;1.63;;;1.53;;
751;SDS011;360;48.764;9.164;2023-02-28T02:14:49;1.23;;;1.00;;
751;SDS011;360;48.764;9.164;2023-02-28T02:17:24;1.70;;;1.40;;
751;SDS011;360;48.764;9.164;2023-02-28T02:22:55;1.77;;;1.63;;
751;SDS011;360;48.764;9.164;2023-02-28T02:25:29;5.50;;;3.57;;
751;SDS011;360;48.764;9.164;2023-02-28T02:30:43;1.50;;;1.23;;
751;SDS011;360;48.764;9.164;2023-02-28T02:33:18;2.40;;;1.50;;
751;SDS011;360;48.764;9.164;2023-02-28T02:35:54;3.83;;;1.70;;
751;SDS011;360;48.764;9.164;2023-02-28T02:38:26;3.00;;;2.00;;
751;SDS011;360;48.764;9.164;2023-02-28T02:40:58;2.63;;;2.43;;
751;SDS011;360;48.764;9.164;2023-02-28T02:43:32;1.23;;;1.03;;
751;SDS011;360;48.764;9.164;2023-02-28T02:46:03;1.90;;;1.60;;
751;SDS011;360;48.764;9.164;2023-02-28T02:48:32;9.07;;;2.03;;
751;SDS011;360;48.764;9.164;2023-02-28T02:51:03;1.80;;;1.50;;
751;SDS011;360;48.764;9.164;2023-02-28T02:53:37;2.87;;;2.47;;
751;SDS011;360;48.764;9.164;2023-02-28T02:56:06;2.60;;;1.40;;
751;SDS011;360;48.764;9.164;2023-02-28T02:58:36;1.23;;;0.87;;
751;SDS011;360;48.764;9.164;2023-02-28T03:01:07;1.07;;;0.77;;
751;SDS011;360;48.764;9.164;2023-02-28T03:03:35;2.30;;;1.20;;
751;SDS011;360;48.764;9.164;2023-02-28T03:06:04;4.93;;;1.50;;
751;SDS011;360;48.764;9.164;2023-02-28T03:08:33;1.33;;;1.23;;
751;SDS011;360;48.764;9.164;2023-02-28T03:11:02;1.50;;;1.40;;
751;SDS011;360;48.764;9.164;2023-02-28T03:13:42;2.00;;;1.23;;
751;SDS011;360;48.764;9.164;2023-02-28T03:18:59;3.07;;;2.70;;
751;SDS011;360;48.764;9.164;2023-02-28T03:21:32;2.00;;;1.50;;
751;SDS011;360;48.764;9.164;2023-02-28T03:24:03;2.77;;;1.33;;
751;SDS011;360;48.764;9.164;2023-02-28T03:26:31;1.30;;;1.20;;
751;SDS011;360;48.764;9.164;2023-02-28T03:29:02;1.73;;;1.30;;
751;SDS011;360;48.764;9.164;2023-02-28T03:31:30;1.43;;;1.20;;
751;SDS011;360;48.764;9.164;2023-02-28T03:33:59;2.37;;;1.50;;
751;SDS011;360;48.764;9.164;2023-02-28T03:36:28;1.53;;;1.13;;
751;SDS011;360;48.764;9.164;2023-02-28T03:38:59;1.23;;;1.10;;
751;SDS011;360;48.764;9.164;2023-02-28T03:41:30;1.33;;;1.23;;
751;SDS011;360;48.764;9.164;2023-02-28T03:44:00;2.20;;;1.23;;
751;SDS011;360;48.764;9.164;2023-02-28T03:46:31;1.63;;;1.50;;
751;SDS011;360;48.764;9.164;2023-02-28T03:49:00;3.20;;;2.00;;
751;SDS011;360;48.764;9.164;2023-02-28T03:51:29;2.73;;;1.27;;
751;SDS011;360;48.764;9.164;2023-02-28T03:53:56;1.50;;;1.40;;
751;SDS011;360;48.764;9.164;2023-02-28T03:56:27;1.80;;;1.70;;
751;SDS011;360;48.764;9.164;2023-02-28T03:58:59;4.27;;;2.10;;
751;SDS011;360;48.764;9.164;2023-02-28T04:01:28;1.40;;;1.17;;
751;SDS011;360;48.764;9.164;2023-02-28T04:03:57;3.20;;;1.50;;
751;SDS011;360;48.764;9.164;2023-02-28T04:06:24;3.23;;;1.97;;
751;SDS011;360;48.764;9.164;2023-02-28T04:08:52;1.97;;;1.80;;
751;SDS011;360;48.764;9.164;2023-02-28T04:11:21;1.77;;;1.43;;
751;SDS011;360;48.764;9.164;2023-02-28T04:13:50;1.30;;;1.10;;
751;SDS011;360;48.764;9.164;2023-02-28T04:16:17;2.50;;;2.30;;
751;SDS011;360;48.764;9.164;2023-02-28T04:18:44;2.90;;;2.23;;
751;SDS011;360;48.764;9.164;2023-02-28T04:21:11;2.40;;;1.63;;
751;SDS011;360;48.764;9.164;2023-02-28T04:23:38;3.10;;;2.10;;
751;SDS011;360;48.764;9.164;2023-02-28T04:26:05;2.13;;;1.57;;
751;SDS011;360;48.764;9.164;2023-02-28T04:28:32;1.90;;;1.70;;
751;SDS011;360;48.764;9.164;2023-02-28T04:31:02;1.97;;;1.87;;
751;SDS011;360;48.764;9.164;2023-02-28T04:33:29;2.67;;;1.83;;
751;SDS011;360;48.764;9.164;2023-02-28T04:36:00;2.20;;;1.60;;
751;SDS011;360;48.764;9.164;2023-02-28T04:38:28;3.80;;;1.70;;
751;SDS011;360;48.764;9.164;2023-02-28T04:40:56;1.70;;;1.40;;
751;SDS011;360;48.764;9.164;2023-02-28T04:43:23;4.13;;;1.90;;
751;SDS011;360;48.764;9.164;2023-02-28T04:45:50;2.67;;;1.70;;
751;SDS011;360;48.764;9.164;2023-02-28T04:48:19;3.60;;;1.97;;
751;SDS011;360;48.764;9.164;2023-02-28T04:50:46;4.17;;;2.37;;
751;SDS011;360;48.764;9.164;2023-02-28T04:53:13;2.33;;;2.10;;
751;SDS011;360;48.764;9.164;2023-02-28T04:55:40;2.43;;;1.93;;
751;SDS011;360;48.764;9.164;2023-02-28T04:58:07;1.67;;;1.57;;
751;SDS011;360;48.764;9.164;2023-02-28T05:00:35;1.80;;;1.43;;
751;SDS011;360;48.764;9.164;2023-02-28T05:03:02;2.30;;;1.20;;
751;SDS011;360;48.764;9.164;2023-02-28T05:05:30;2.63;;;1.63;;
751;SDS011;360;48.764;9.164;2023-02-28T05:07:57;3.50;;;2.30;;
751;SDS011;360;48.764;9.164;2023-02-28T05:10:25;2.17;;;1.57;;
751;SDS011;360;48.764;9.164;2023-02-28T05:12:52;1.73;;;1.40;;
751;SDS011;360;48.764;9.164;2023-02-28T05:15:19;2.60;;;2.10;;
751;SDS011;360;48.764;9.164;2023-02-28T05:17:46;1.60;;;1.43;;
751;SDS011;360;48.764;9.164;2023-02-28T05:20:13;3.70;;;2.83;;
751;SDS011;360;48.764;9.164;2023-02-28T05:22:42;2.23;;;1.90;;
751;SDS011;360;48.764;9.164;2023-02-28T05:25:10;2.50;;;1.90;;
751;SDS011;360;48.764;9.164;2023-02-28T05:27:37;3.57;;;1.70;;
751;SDS011;360;48.764;9.164;2023-02-28T05:30:05;2.13;;;1.90;;
751;SDS011;360;48.764;9.164;2023-02-28T05:32:35;3.53;;;2.53;;
751;SDS011;360;48.764;9.164;2023-02-28T05:35:02;3.87;;;2.70;;
751;SDS011;360;48.764;9.164;2023-02-28T05:37:29;3.13;;;2.20;;
751;SDS011;360;48.764;9.164;2023-02-28T05:39:58;2.20;;;1.93;;
751;SDS011;360;48.764;9.164;2023-02-28T05:42:25;2.37;;;2.20;;
751;SDS011;360;48.764;9.164;2023-02-28T05:44:53;1.83;;;1.50;;
751;SDS011;360;48.764;9.164;2023-02-28T05:47:20;4.33;;;2.10;;
751;SDS011;360;48.764;9.164;2023-02-28T05:49:47;4.00;;;2.10;;
751;SDS011;360;48.764;9.164;2023-02-28T05:52:14;1.47;;;1.37;;
751;SDS011;360;48.764;9.164;2023-02-28T05:54:41;3.00;;;1.97;;
751;SDS011;360;48.764;9.164;2023-02-28T05:57:10;2.67;;;1.70;;
751;SDS011;360;48.764;9.164;2023-02-28T05:59:37;1.40;;;1.30;;
751;SDS011;360;48.764;9.164;2023-02-28T06:02:05;2.03;;;1.53;;
751;SDS011;360;48.764;9.164;2023-02-28T06:04:32;1.67;;;1.50;;
751;SDS011;360;48.764;9.164;2023-02-28T06:06:59;2.77;;;1.80;;
751;SDS011;360;48.764;9.164;2023-02-28T06:09:26;3.23;;;1.77;;
751;SDS011;360;48.764;9.164;2023-02-28T06:11:54;6.80;;;1.57;;
751;SDS011;360;48.764;9.164;2023-02-28T06:14:22;4.00;;;1.90;;
751;SDS011;360;48.764;9.164;2023-02-28T06:16:49;3.30;;;2.73;;
751;SDS011;360;48.764;9.164;2023-02-28T06:19:16;5.43;;;2.90;;
751;SDS011;360;48.764;9.164;2023-02-28T06:21:43;2.07;;;1.63;;
751;SDS011;360;48.764;9.164;2023-02-28T06:24:10;2.97;;;2.67;;
751;SDS011;360;48.764;9.164;2023-02-28T06:26:38;5.70;;;2.90;;
751;SDS011;360;48.764;9.164;2023-02-28T06:29:05;4.50;;;2.70;;
751;SDS011;360;48.764;9.164;2023-02-28T06:31:33;2.43;;;1.63;;
751;SDS011;360;48.764;9.164;2023-02-28T06:34:00;2.67;;;2.37;;
751;SDS011;360;48.764;9.164;2023-02-28T06:36:27;3.20;;;1.80;;
751;SDS011;360;48.764;9.164;2023-02-28T06:38:55;3.90;;;2.90;;
751;SDS011;360;48.764;9.164;2023-02-28T06:41:23;4.23;;;2.33;;
751;SDS011;360;48.764;9.164;2023-02-28T06:43:50;7.77;;;2.40;;
751;SDS011;360;48.764;9.164;2023-02-28T06:46:17;8.57;;;2.17;;
751;SDS011;360;48.764;9.164;2023-02-28T06:48:46;3.10;;;2.80;;
751;SDS011;360;48.764;9.164;2023-02-28T06:51:14;2.70;;;2.50;;
751;SDS011;360;48.764;9.164;2023-02-28T06:53:42;2.53;;;2.10;;
751;SDS011;360;48.764;9.164;2023-02-28T06:56:10;3.20;;;2.40;;
751;SDS011;360;48.764;9.164;2023-02-28T06:58:37;6.03;;;3.03;;
751;SDS011;360;48.764;9.164;2023-02-28T07:01:05;2.10;;;1.43;;
751;SDS011;360;48.764;9.164;2023-02-28T07:03:32;2.87;;;2.67;;
751;SDS011;360;48.764;9.164;2023-02-28T07:06:02;3.57;;;2.00;;
751;SDS011;360;48.764;9.164;2023-02-28T07:08:29;5.97;;;2.27;;
751;SDS011;360;48.764;9.164;2023-02-28T07:10:57;1.97;;;1.73;;
751;SDS011;360;48.764;9.164;2023-02-28T07:13:25;4.20;;;2.10;;
751;SDS011;360;48.764;9.164;2023-02-28T07:15:53;4.90;;;2.50;;
751;SDS011;360;48.764;9.164;2023-02-28T07:18:20;7.80;;;2.83;;
751;SDS011;360;48.764;9.164;2023-02-28T07:20:47;4.27;;;1.50;;
751;SDS011;360;48.764;9.164;2023-02-28T07:23:15;2.40;;;2.20;;
751;SDS011;360;48.764;9.164;2023-02-28T07:25:43;2.30;;;2.10;;
751;SDS011;360;48.764;9.164;2023-02-28T07:28:10;10.47;;;5.33;;
751;SDS011;360;48.764;9.164;2023-02-28T07:30:37;3.57;;;2.40;;
751;SDS011;360;48.764;9.164;2023-02-28T07:33:04;4.53;;;2.67;;
751;SDS011;360;48.764;9.164;2023-02-28T07:35:31;3.23;;;2.30;;
751;SDS011;360;48.764;9.164;2023-02-28T07:37:59;4.60;;;2.83;;
751;SDS011;360;48.764;9.164;2023-02-28T07:40:27;3.70;;;2.90;;
751;SDS011;360;48.764;9.164;2023-02-28T07:42:54;6.50;;;2.40;;
751;SDS011;360;48.764;9.164;2023-02-28T07:45:21;4.13;;;2.40;;
751;SDS011;360;48.764;9.164;2023-02-28T07:47:48;4.70;;;3.53;;
751;SDS011;360;48.764;9.164;2023-02-28T07:50:15;3.87;;;3.13;;
751;SDS011;360;48.764;9.164;2023-02-28T07:52:43;7.83;;;4.70;;
751;SDS011;360;48.764;9.164;2023-02-28T07:55:10;5.40;;;4.43;;
751;SDS011;360;48.764;9.164;2023-02-28T07:57:40;4.63;;;3.50;;
751;SDS011;360;48.764;9.164;2023-02-28T08:00:08;5.87;;;3.10;;
751;SDS011;360;48.764;9.164;2023-02-28T08:02:37;3.13;;;2.83;;
751;SDS011;360;48.764;9.164;2023-02-28T08:05:05;2.87;;;2.40;;
751;SDS011;360;48.764;9.164;2023-02-28T08:07:32;6.97;;;2.90;;
751;SDS011;360;48.764;9.164;2023-02-28T08:09:59;3.93;;;3.43;;
751;SDS011;360;48.764;9.164;2023-02-28T08:12:26;8.63;;;3.20;;
751;SDS011;360;48.764;9.164;2023-02-28T08:14:55;5.90;;;2.90;;
751;SDS011;360;48.764;9.164;2023-02-28T08:17:22;3.00;;;2.70;;
751;SDS011;360;48.764;9.164;2023-02-28T08:19:49;5.03;;;3.57;;
751;SDS011;360;48.764;9.164;2023-02-28T08:22:16;6.97;;;3.07;;
751;SDS011;360;48.764;9.164;2023-02-28T08:24:43;4.40;;;4.00;;
751;SDS011;360;48.764;9.164;2023-02-28T08:27:10;3.23;;;2.73;;
751;SDS011;360;48.764;9.164;2023-02-28T08:29:38;16.37;;;5.67;;
751;SDS011;360;48.764;9.164;2023-02-28T08:32:07;4.77;;;4.37;;
751;SDS011;360;48.764;9.164;2023-02-28T08:34:34;6.73;;;2.27;;
751;SDS011;360;48.764;9.164;2023-02-28T08:37:01;4.60;;;2.30;;
751;SDS011;360;48.764;9.164;2023-02-28T08:39:28;4.30;;;2.30;;
751;SDS011;360;48.764;9.164;2023-02-28T08:41:55;5.73;;;3.10;;
751;SDS011;360;48.764;9.164;2023-02-28T08:44:22;3.90;;;3.00;;
751;SDS011;360;48.764;9.164;2023-02-28T08:46:49;6.03;;;3.53;;
751;SDS011;360;48.764;9.164;2023-02-28T08:49:18;5.87;;;3.70;;
751;SDS011;360;48.764;9.164;2023-02-28T08:51:45;4.73;;;3.10;;
751;SDS011;360;48.764;9.164;2023-02-28T08:54:12;7.83;;;3.67;;
751;SDS011;360;48.764;9.164;2023-02-28T08:56:41;8.87;;;3.07;;
751;SDS011;360;48.764;9.164;2023-02-28T08:59:08;5.93;;;4.20;;
751;SDS011;360;48.764;9.164;2023-02-28T09:01:35;5.63;;;3.60;;
751;SDS011;360;48.764;9.164;2023-02-28T09:04:03;4.00;;;3.70;;
751;SDS011;360;48.764;9.164;2023-02-28T09:06:33;7.73;;;4.20;;
751;SDS011;360;48.764;9.164;2023-02-28T09:09:00;4.20;;;3.33;;
751;SDS011;360;48.764;9.164;2023-02-28T09:11:29;6.73;;;4.20;;
751;SDS011;360;48.764;9.164;2023-02-28T09:13:57;6.10;;;3.73;;
751;SDS011;360;48.764;9.164;2023-02-28T09:16:25;6.57;;;4.23;;
751;SDS011;360;48.764;9.164;2023-02-28T09:18:52;5.80;;;3.87;;
751;SDS011;360;48.764;9.164;2023-02-28T09:21:19;4.33;;;2.73;;
751;SDS011;360;48.764;9.164;2023-02-28T09:23:48;11.13;;;3.20;;
751;SDS011;360;48.764;9.164;2023-02-28T09:26:16;5.83;;;3.67;;
751;SDS011;360;48.764;9.164;2023-02-28T09:28:44;4.10;;;2.97;;
751;SDS011;360;48.764;9.164;2023-02-28T09:31:12;5.23;;;3.37;;
751;SDS011;360;48.764;9.164;2023-02-28T09:33:39;6.30;;;3.70;;
751;SDS011;360;48.764;9.164;2023-02-28T09:36:07;5.57;;;3.50;;
751;SDS011;360;48.764;9.164;2023-02-28T09:38:34;4.63;;;3.73;;
751;SDS011;360;48.764;9.164;2023-02-28T09:41:03;4.50;;;3.23;;
751;SDS011;360;48.764;9.164;2023-02-28T09:43:32;5.30;;;3.50;;
751;SDS011;360;48.764;9.164;2023-02-28T09:46:02;3.53;;;3.23;;
751;SDS011;360;48.764;9.164;2023-02-28T09:48:33;4.27;;;2.80;;
751;SDS011;360;48.764;9.164;2023-02-28T09:51:03;2.27;;;2.07;;
751;SDS011;360;48.764;9.164;2023-02-28T09:53:31;4.20;;;2.97;;
751;SDS011;360;48.764;9.164;2023-02-28T09:56:01;5.30;;;3.60;;
751;SDS011;360;48.764;9.164;2023-02-28T09:58:30;5.13;;;3.87;;
751;SDS011;360;48.764;9.164;2023-02-28T10:01:00;4.10;;;3.27;;
751;SDS011;360;48.764;9.164;2023-02-28T10:03:30;8.37;;;3.73;;
751;SDS011;360;48.764;9.164;2023-02-28T10:06:00;7.60;;;3.60;;
751;SDS011;360;48.764;9.164;2023-02-28T10:08:30;6.00;;;4.43;;
751;SDS011;360;48.764;9.164;2023-02-28T10:11:00;4.03;;;2.90;;
751;SDS011;360;48.764;9.164;2023-02-28T10:13:33;5.73;;;4.17;;
751;SDS011;360;48.764;9.164;2023-02-28T10:16:02;2.83;;;2.63;;
751;SDS011;360;48.764;9.164;2023-02-28T10:18:31;2.83;;;2.30;;
751;SDS011;360;48.764;9.164;2023-02-28T10:21:02;8.40;;;3.03;;
751;SDS011;360;48.764;9.164;2023-02-28T10:23:31;3.87;;;3.20;;
751;SDS011;360;48.764;9.164;2023-02-28T10:26:00;3.73;;;3.03;;
751;SDS011;360;48.764;9.164;2023-02-28T10:28:28;3.50;;;2.73;;
751;SDS011;360;48.764;9.164;2023-02-28T10:30:58;10.53;;;4.50;;
751;SDS011;360;48.764;9.164;2023-02-28T10:33:28;5.80;;;3.97;;
751;SDS011;360;48.764;9.164;2023-02-28T10:35:56;7.53;;;3.60;;
751;SDS011;360;48.764;9.164;2023-02-28T10:38:24;5.00;;;3.57;;
751;SDS011;360;48.764;9.164;2023-02-28T10:40:51;6.67;;;4.37;;
751;SDS011;360;48.764;9.164;2023-02-28T10:43:29;7.70;;;4.60;;
751;SDS011;360;48.764;9.164;2023-02-28T10:46:02;6.80;;;4.20;;
751;SDS011;360;48.764;9.164;2023-02-28T10:48:33;5.97;;;3.10;;
751;SDS011;360;48.764;9.164;2023-02-28T10:51:01;6.27;;;4.07;;
751;SDS011;360;48.764;9.164;2023-02-28T10:53:30;6.37;;;3.63;;
751;SDS011;360;48.764;9.164;2023-02-28T10:55:58;6.10;;;4.00;;
751;SDS011;360;48.764;9.164;2023-02-28T10:58:27;5.40;;;4.70;;
751;SDS011;360;48.764;9.164;2023-02-28T11:00:54;5.37;;;3.53;;
751;SDS011;360;48.764;9.164;2023-02-28T11:03:24;4.27;;;3.63;;
751;SDS011;360;48.764;9.164;2023-02-28T11:05:52;6.27;;;3.80;;
751;SDS011;360;48.764;9.164;2023-02-28T11:08:19;6.43;;;4.07;;
751;SDS011;360;48.764;9.164;2023-02-28T11:10:47;10.87;;;4.80;;
751;SDS011;360;48.764;9.164;2023-02-28T11:13:16;7.63;;;3.70;;
751;SDS011;360;48.764;9.164;2023-02-28T11:15:49;7.03;;;4.43;;
751;SDS011;360;48.764;9.164;2023-02-28T11:18:20;5.67;;;4.40;;
751;SDS011;360;48.764;9.164;2023-02-28T11:20:50;5.93;;;3.27;;
751;SDS011;360;48.764;9.164;2023-02-28T11:23:18;3.80;;;3.13;;
751;SDS011;360;48.764;9.164;2023-02-28T11:25:46;4.93;;;3.23;;
751;SDS011;360;48.764;9.164;2023-02-28T11:28:23;6.03;;;4.50;;
751;SDS011;360;48.764;9.164;2023-02-28T11:30:59;7.73;;;5.20;;
751;SDS011;360;48.764;9.164;2023-02-28T11:33:27;9.17;;;4.60;;
751;SDS011;360;48.764;9.164;2023-02-28T11:35:57;6.80;;;4.10;;
751;SDS011;360;48.764;9.164;2023-02-28T11:38:25;5.50;;;4.90;;
751;SDS011;360;48.764;9.164;2023-02-28T11:40:57;7.67;;;3.90;;
751;SDS011;360;48.764;9.164;2023-02-28T11:43:30;7.67;;;3.53;;
751;SDS011;360;48.764;9.164;2023-02-28T11:46:11;4.20;;;3.23;;
751;SDS011;360;48.764;9.164;2023-02-28T11:48:43;8.00;;;4.00;;
751;SDS011;360;48.764;9.164;2023-02-28T11:51:15;6.83;;;4.13;;
751;SDS011;360;48.764;9.164;2023-02-28T11:56:29;7.17;;;4.77;;
751;SDS011;360;48.764;9.164;2023-02-28T11:59:01;5.60;;;4.40;;
751;SDS011;360;48.764;9.164;2023-02-28T12:01:34;8.20;;;4.50;;
751;SDS011;360;48.764;9.164;2023-02-28T12:04:04;7.83;;;4.90;;
751;SDS011;360;48.764;9.164;2023-02-28T12:06:38;4.67;;;3.50;;
751;SDS011;360;48.764;9.164;2023-02-28T12:09:17;4.73;;;3.67;;
751;SDS011;360;48.764;9.164;2023-02-28T12:11:48;8.20;;;4.67;;
751;SDS011;360;48.764;9.164;2023-02-28T12:14:22;7.57;;;4.60;;
751;SDS011;360;48.764;9.164;2023-02-28T12:16:55;6.47;;;4.50;;
751;SDS011;360;48.764;9.164;2023-02-28T12:19:26;7.87;;;5.30;;
751;SDS011;360;48.764;9.164;2023-02-28T12:22:10;5.57;;;3.77;;
751;SDS011;360;48.764;9.164;2023-02-28T12:24:42;5.27;;;3.47;;
751;SDS011;360;48.764;9.164;2023-02-28T12:27:12;9.80;;;4.80;;
751;SDS011;360;48.764;9.164;2023-02-28T12:29:42;7.37;;;5.30;;
751;SDS011;360;48.764;9.164;2023-02-28T12:32:11;5.80;;;4.23;;
751;SDS011;360;48.764;9.164;2023-02-28T12:34:41;5.07;;;3.83;;
751;SDS011;360;48.764;9.164;2023-02-28T12:37:13;6.10;;;4.33;;
751;SDS011;360;48.764;9.164;2023-02-28T12:39:43;9.57;;;4.87;;
751;SDS011;360;48.764;9.164;2023-02-28T12:42:11;5.73;;;4.13;;
751;SDS011;360;48.764;9.164;2023-02-28T12:44:40;4.70;;;3.67;;
751;SDS011;360;48.764;9.164;2023-02-28T12:47:12;7.53;;;4.27;;
751;SDS011;360;48.764;9.164;2023-02-28T12:49:41;7.07;;;4.07;;
751;SDS011;360;48.764;9.164;2023-02-28T12:52:11;6.83;;;4.33;;
751;SDS011;360;48.764;9.164;2023-02-28T12:54:43;13.57;;;4.37;;
751;SDS011;360;48.764;9.164;2023-02-28T12:57:12;7.13;;;4.80;;
751;SDS011;360;48.764;9.164;2023-02-28T12:59:42;4.97;;;4.20;;
751;SDS011;360;48.764;9.164;2023-02-28T13:02:31;6.60;;;4.40;;
751;SDS011;360;48.764;9.164;2023-02-28T13:05:02;6.53;;;3.90;;
751;SDS011;360;48.764;9.164;2023-02-28T13:07:43;6.50;;;4.10;;
751;SDS011;360;48.764;9.164;2023-02-28T13:10:15;4.23;;;3.83;;
751;SDS011;360;48.764;9.164;2023-02-28T13:12:47;14.53;;;4.97;;
751;SDS011;360;48.764;9.164;2023-02-28T13:15:16;7.53;;;5.40;;
751;SDS011;360;48.764;9.164;2023-02-28T13:17:47;4.30;;;3.90;;
751;SDS011;360;48.764;9.164;2023-02-28T13:20:16;7.10;;;5.13;;
751;SDS011;360;48.764;9.164;2023-02-28T13:22:46;6.00;;;3.90;;
751;SDS011;360;48.764;9.164;2023-02-28T13:28:02;5.53;;;3.80;;
751;SDS011;360;48.764;9.164;2023-02-28T13:33:22;5.17;;;4.67;;
751;SDS011;360;48.764;9.164;2023-02-28T13:36:00;4.67;;;4.10;;
751;SDS011;360;48.764;9.164;2023-02-28T13:38:35;8.07;;;4.87;;
751;SDS011;360;48.764;9.164;2023-02-28T13:43:59;6.40;;;4.30;;
751;SDS011;360;48.764;9.164;2023-02-28T13:46:26;4.80;;;3.80;;
751;SDS011;360;48.764;9.164;2023-02-28T13:48:53;6.80;;;5.40;;
751;SDS011;360;48.764;9.164;2023-02-28T13:51:39;7.07;;;4.07;;
751;SDS011;360;48.764;9.164;2023-02-28T13:54:15;7.63;;;3.90;;
751;SDS011;360;48.764;9.164;2023-02-28T13:56:45;8.17;;;5.07;;
751;SDS011;360;48.764;9.164;2023-02-28T13:59:17;4.00;;;3.60;;
751;SDS011;360;48.764;9.164;2023-02-28T14:01:52;6.23;;;3.80;;
751;SDS011;360;48.764;9.164;2023-02-28T14:04:28;5.13;;;3.60;;
751;SDS011;360;48.764;9.164;2023-02-28T14:07:00;10.90;;;4.93;;
751;SDS011;360;48.764;9.164;2023-02-28T14:09:30;5.53;;;4.03;;
751;SDS011;360;48.764;9.164;2023-02-28T14:11:58;5.40;;;4.03;;
751;SDS011;360;48.764;9.164;2023-02-28T14:14:54;4.93;;;4.40;;
751;SDS011;360;48.764;9.164;2023-02-28T14:17:24;3.97;;;3.57;;
751;SDS011;360;48.764;9.164;2023-02-28T14:19:52;6.63;;;3.97;;
751;SDS011;360;48.764;9.164;2023-02-28T14:22:25;7.63;;;4.60;;
751;SDS011;360;48.764;9.164;2023-02-28T14:25:07;8.17;;;4.60;;
751;SDS011;360;48.764;9.164;2023-02-28T14:27:37;6.13;;;4.30;;
751;SDS011;360;48.764;9.164;2023-02-28T14:30:16;4.73;;;3.87;;
751;SDS011;360;48.764;9.164;2023-02-28T14:32:47;5.33;;;4.17;;
751;SDS011;360;48.764;9.164;2023-02-28T14:35:19;4.83;;;3.53;;
751;SDS011;360;48.764;9.164;2023-02-28T14:37:47;4.83;;;3.43;;
751;SDS011;360;48.764;9.164;2023-02-28T14:40:27;6.30;;;4.50;;
751;SDS011;360;48.764;9.164;2023-02-28T14:42:55;5.43;;;3.20;;
751;SDS011;360;48.764;9.164;2023-02-28T14:45:22;4.00;;;3.37;;
751;SDS011;360;48.764;9.164;2023-02-28T14:47:50;5.20;;;4.07;;
751;SDS011;360;48.764;9.164;2023-02-28T14:50:18;7.63;;;4.73;;
751;SDS011;360;48.764;9.164;2023-02-28T14:52:46;9.73;;;4.00;;
751;SDS011;360;48.764;9.164;2023-02-28T14:55:14;5.40;;;4.57;;
751;SDS011;360;48.764;9.164;2023-02-28T14:57:50;6.57;;;4.13;;
751;SDS011;360;48.764;9.164;2023-02-28T15:00:20;6.27;;;5.00;;
751;SDS011;360;48.764;9.164;2023-02-28T15:02:48;5.80;;;4.20;;
751;SDS011;360;48.764;9.164;2023-02-28T15:05:19;5.33;;;3.73;;
751;SDS011;360;48.764;9.164;2023-02-28T15:07:47;4.33;;;3.60;;
751;SDS011;360;48.764;9.164;2023-02-28T15:10:16;11.20;;;4.77;;
751;SDS011;360;48.764;9.164;2023-02-28T15:12:47;6.80;;;4.13;;
751;SDS011;360;48.764;9.164;2023-02-28T15:15:16;4.57;;;4.13;;
751;SDS011;360;48.764;9.164;2023-02-28T15:17:44;6.13;;;4.37;;
751;SDS011;360;48.764;9.164;2023-02-28T15:20:12;5.23;;;4.30;;
751;SDS011;360;48.764;9.164;2023-02-28T15:22:40;5.17;;;3.57;;
751;SDS011;360;48.764;9.164;2023-02-28T15:25:09;5.57;;;4.17;;
751;SDS011;360;48.764;9.164;2023-02-28T15:27:41;4.30;;;3.70;;
751;SDS011;360;48.764;9.164;2023-02-28T15:30:14;5.67;;;4.43;;
751;SDS011;360;48.764;9.164;2023-02-28T15:32:43;7.73;;;3.83;;
751;SDS011;360;48.764;9.164;2023-02-28T15:35:17;5.83;;;4.20;;
751;SDS011;360;48.764;9.164;2023-02-28T15:37:46;8.70;;;5.07;;
751;SDS011;360;48.764;9.164;2023-02-28T15:40:15;7.53;;;4.30;;
751;SDS011;360;48.764;9.164;2023-02-28T15:42:43;4.33;;;3.90;;
751;SDS011;360;48.764;9.164;2023-02-28T15:45:33;6.07;;;4.30;;
751;SDS011;360;48.764;9.164;2023-02-28T15:48:03;11.33;;;5.43;;
751;SDS011;360;48.764;9.164;2023-02-28T15:50:30;8.53;;;4.03;;
751;SDS011;360;48.764;9.164;2023-02-28T15:52:58;6.50;;;4.63;;
751;SDS011;360;48.764;9.164;2023-02-28T15:55:28;4.80;;;4.07;;
751;SDS011;360;48.764;9.164;2023-02-28T15:57:56;5.13;;;3.97;;
751;SDS011;360;48.764;9.164;2023-02-28T16:00:25;8.90;;;4.50;;
751;SDS011;360;48.764;9.164;2023-02-28T16:02:54;8.27;;;4.90;;
751;SDS011;360;48.764;9.164;2023-02-28T16:05:22;6.77;;;4.23;;
751;SDS011;360;48.764;9.164;2023-02-28T16:07:53;7.93;;;5.27;;
751;SDS011;360;48.764;9.164;2023-02-28T16:10:20;5.23;;;4.03;;
751;SDS011;360;48.764;9.164;2023-02-28T16:12:50;4.87;;;4.07;;
751;SDS011;360;48.764;9.164;2023-02-28T16:15:18;4.47;;;4.07;;
751;SDS011;360;48.764;9.164;2023-02-28T16:17:45;5.77;;;4.60;;